createdAt,value
2022-09-28T00:00:25.307Z,8.79
2022-09-28T00:01:25.398Z,8.80
2022-09-28T00:02:25.362Z,8.79
2022-09-28T00:03:25.250Z,8.80
2022-09-28T00:04:25.257Z,8.80
2022-09-28T00:05:25.298Z,8.80
2022-09-28T00:06:25.223Z,8.82
2022-09-28T00:07:25.257Z,8.83
2022-09-28T00:08:25.207Z,8.82
2022-09-28T00:09:25.206Z,8.83
2022-09-28T00:10:25.166Z,8.83
2022-09-28T00:11:25.166Z,8.83
2022-09-28T00:12:25.163Z,8.82
2022-09-28T00:13:25.134Z,8.82
2022-09-28T00:14:25.153Z,8.85
2022-09-28T00:15:25.107Z,8.86
2022-09-28T00:16:25.123Z,8.86
2022-09-28T00:17:25.096Z,8.86
2022-09-28T00:18:25.074Z,8.87
2022-09-28T00:19:25.106Z,8.87
2022-09-28T00:20:25.044Z,8.87
2022-09-28T00:21:25.041Z,8.87
2022-09-28T00:22:25.017Z,8.87
2022-09-28T00:23:25.013Z,8.87
2022-09-28T00:24:27.698Z,8.87
2022-09-28T00:25:24.982Z,8.87
2022-09-28T00:26:24.963Z,8.87
2022-09-28T00:27:24.958Z,8.87
2022-09-28T00:28:25.910Z,8.87
2022-09-28T00:29:24.988Z,8.87
2022-09-28T00:30:24.912Z,8.87
2022-09-28T00:31:25.004Z,8.89
2022-09-28T00:32:24.901Z,8.87
2022-09-28T00:33:24.878Z,8.89
2022-09-28T00:34:24.887Z,8.89
2022-09-28T00:35:24.859Z,8.87
2022-09-28T00:36:24.848Z,8.89
2022-09-28T00:37:24.830Z,8.89
2022-09-28T00:38:24.817Z,8.89
2022-09-28T00:39:24.830Z,8.90
2022-09-28T00:40:24.861Z,8.90
2022-09-28T00:41:24.784Z,8.90
2022-09-28T00:42:24.748Z,8.89
2022-09-28T00:43:24.746Z,8.89
2022-09-28T00:44:24.756Z,8.90
2022-09-28T00:45:24.761Z,8.89
2022-09-28T00:46:24.721Z,8.89
2022-09-28T00:47:24.705Z,8.90
2022-09-28T00:48:24.697Z,8.92
2022-09-28T00:49:24.722Z,8.90
2022-09-28T00:50:24.907Z,8.92
2022-09-28T00:51:24.651Z,8.89
2022-09-28T00:52:24.638Z,8.92
2022-09-28T00:53:24.621Z,8.92
2022-09-28T00:54:24.594Z,8.92
2022-09-28T00:55:24.605Z,8.92
2022-09-28T00:56:24.582Z,8.89
2022-09-28T00:57:24.572Z,8.92
2022-09-28T00:58:24.556Z,8.92
2022-09-28T00:59:24.544Z,8.92
2022-09-28T01:00:24.563Z,8.94
2022-09-28T01:01:24.606Z,8.94
2022-09-28T01:02:24.544Z,8.94
2022-09-28T01:03:24.481Z,8.94
2022-09-28T01:04:29.199Z,8.97
2022-09-28T01:05:25.492Z,8.94
2022-09-28T01:06:24.490Z,8.94
2022-09-28T01:07:24.460Z,8.94
2022-09-28T01:08:24.455Z,8.94
2022-09-28T01:09:24.470Z,8.95
2022-09-28T01:10:24.437Z,8.97
2022-09-28T01:11:24.425Z,8.97
2022-09-28T01:12:24.389Z,8.97
2022-09-28T01:13:24.412Z,8.95
2022-09-28T01:14:24.327Z,8.97
2022-09-28T01:15:24.358Z,8.97
2022-09-28T01:16:24.338Z,8.97
2022-09-28T01:17:24.410Z,8.98
2022-09-28T01:18:24.295Z,8.97
2022-09-28T01:19:24.276Z,8.98
2022-09-28T01:20:24.273Z,9.00
2022-09-28T01:21:24.277Z,9.00
2022-09-28T01:22:24.234Z,9.00
2022-09-28T01:23:24.224Z,9.00
2022-09-28T01:24:24.215Z,9.01
2022-09-28T01:25:24.225Z,9.01
2022-09-28T01:26:24.193Z,9.03
2022-09-28T01:27:24.179Z,9.03
2022-09-28T01:28:24.184Z,9.03
2022-09-28T01:29:24.148Z,9.03
2022-09-28T01:30:24.156Z,9.04
2022-09-28T01:31:24.198Z,9.03
2022-09-28T01:32:24.110Z,9.03
2022-09-28T01:33:24.134Z,9.03
2022-09-28T01:34:24.092Z,9.04
2022-09-28T01:35:24.075Z,9.04
2022-09-28T01:36:24.076Z,9.03
2022-09-28T01:37:24.040Z,9.04
2022-09-28T01:38:24.073Z,9.04
2022-09-28T01:39:24.020Z,9.04
2022-09-28T01:40:24.089Z,9.03
2022-09-28T01:41:24.003Z,9.04
2022-09-28T01:42:24.003Z,9.04
2022-09-28T01:43:23.979Z,9.04
2022-09-28T01:44:23.965Z,9.04
2022-09-28T01:45:23.959Z,9.05
2022-09-28T01:46:23.969Z,9.05
2022-09-28T01:47:23.937Z,9.05
2022-09-28T01:48:23.907Z,9.04
2022-09-28T01:49:23.943Z,9.08
2022-09-28T01:50:23.884Z,9.05
2022-09-28T01:51:23.915Z,9.05
2022-09-28T01:52:23.855Z,9.08
2022-09-28T01:53:23.885Z,9.09
2022-09-28T01:54:23.817Z,9.09
2022-09-28T01:55:23.832Z,9.08
2022-09-28T01:56:23.851Z,9.08
2022-09-28T01:57:23.786Z,9.09
2022-09-28T01:58:23.767Z,9.09
2022-09-28T01:59:23.802Z,9.08
2022-09-28T02:00:23.764Z,9.09
2022-09-28T02:01:23.744Z,9.11
2022-09-28T02:02:23.794Z,9.11
2022-09-28T02:03:23.732Z,9.11
2022-09-28T02:04:23.711Z,9.11
2022-09-28T02:05:23.691Z,9.09
2022-09-28T02:06:23.674Z,9.11
2022-09-28T02:07:23.691Z,9.11
2022-09-28T02:08:23.652Z,9.12
2022-09-28T02:09:23.662Z,9.12
2022-09-28T02:10:23.621Z,9.12
2022-09-28T02:11:23.655Z,9.12
2022-09-28T02:12:23.599Z,9.14
2022-09-28T02:13:23.600Z,9.12
2022-09-28T02:14:23.573Z,9.16
2022-09-28T02:15:23.550Z,9.14
2022-09-28T02:16:23.643Z,9.16
2022-09-28T02:17:23.521Z,9.16
2022-09-28T02:18:23.520Z,9.14
2022-09-28T02:19:23.508Z,9.14
2022-09-28T02:20:23.488Z,9.14
2022-09-28T02:21:23.502Z,9.14
2022-09-28T02:22:23.514Z,9.16
2022-09-28T02:23:23.487Z,9.16
2022-09-28T02:24:23.437Z,9.16
2022-09-28T02:25:23.440Z,9.16
2022-09-28T02:26:23.426Z,9.16
2022-09-28T02:27:23.405Z,9.16
2022-09-28T02:28:23.421Z,9.16
2022-09-28T02:29:23.395Z,9.17
2022-09-28T02:30:23.356Z,9.19
2022-09-28T02:31:23.384Z,9.19
2022-09-28T02:32:23.347Z,9.17
2022-09-28T02:33:23.325Z,9.19
2022-09-28T02:34:23.314Z,9.19
2022-09-28T02:35:23.316Z,9.19
2022-09-28T02:36:23.296Z,9.20
2022-09-28T02:37:23.283Z,9.20
2022-09-28T02:38:23.263Z,9.20
2022-09-28T02:39:23.293Z,9.19
2022-09-28T02:40:23.312Z,9.21
2022-09-28T02:41:23.232Z,9.21
2022-09-28T02:42:23.212Z,9.21
2022-09-28T02:43:23.200Z,9.21
2022-09-28T02:44:23.272Z,9.23
2022-09-28T02:45:23.174Z,9.23
2022-09-28T02:46:23.170Z,9.23
2022-09-28T02:47:23.132Z,9.24
2022-09-28T02:48:41.261Z,9.24
2022-09-28T02:49:24.211Z,9.24
2022-09-28T02:50:23.135Z,9.26
2022-09-28T02:51:23.095Z,9.26
2022-09-28T02:52:23.079Z,9.26
2022-09-28T02:53:23.087Z,9.27
2022-09-28T02:54:23.100Z,9.27
2022-09-28T02:55:23.062Z,9.27
2022-09-28T02:56:23.028Z,9.27
2022-09-28T02:57:23.018Z,9.29
2022-09-28T02:58:23.005Z,9.32
2022-09-28T02:59:23.021Z,9.30
2022-09-28T03:00:22.997Z,9.34
2022-09-28T03:01:23.070Z,9.34
2022-09-28T03:02:23.007Z,9.35
2022-09-28T03:03:22.936Z,9.37
2022-09-28T03:04:23.897Z,9.37
2022-09-28T03:05:22.906Z,9.38
2022-09-28T03:06:22.896Z,9.38
2022-09-28T03:07:22.903Z,9.41
2022-09-28T03:08:22.907Z,9.41
2022-09-28T03:09:22.906Z,9.42
2022-09-28T03:10:22.853Z,9.44
2022-09-28T03:11:22.921Z,9.44
2022-09-28T03:12:22.823Z,9.44
2022-09-28T03:13:22.834Z,9.45
2022-09-28T03:14:22.811Z,9.45
2022-09-28T03:15:22.793Z,9.48
2022-09-28T03:16:22.846Z,9.48
2022-09-28T03:17:22.781Z,9.48
2022-09-28T03:18:22.752Z,9.48
2022-09-28T03:19:22.738Z,9.48
2022-09-28T03:20:22.718Z,9.50
2022-09-28T03:21:22.720Z,9.50
2022-09-28T03:22:22.709Z,9.52
2022-09-28T03:23:25.048Z,9.53
2022-09-28T03:24:22.686Z,9.53
2022-09-28T03:25:22.651Z,9.55
2022-09-28T03:26:22.691Z,9.56
2022-09-28T03:27:22.643Z,9.56
2022-09-28T03:28:22.612Z,9.57
2022-09-28T03:29:22.617Z,9.59
2022-09-28T03:30:22.591Z,9.60
2022-09-28T03:31:22.657Z,9.59
2022-09-28T03:32:22.568Z,9.60
2022-09-28T03:33:22.549Z,9.60
2022-09-28T03:34:22.551Z,9.63
2022-09-28T03:35:22.528Z,9.63
2022-09-28T03:36:22.528Z,9.62
2022-09-28T03:37:22.508Z,9.62
2022-09-28T03:38:22.486Z,9.63
2022-09-28T03:39:22.531Z,9.63
2022-09-28T03:40:22.516Z,9.62
2022-09-28T03:41:22.477Z,9.63
2022-09-28T03:42:22.462Z,9.64
2022-09-28T03:43:22.428Z,9.64
2022-09-28T03:44:22.468Z,9.66
2022-09-28T03:45:22.394Z,9.64
2022-09-28T03:46:22.403Z,9.64
2022-09-28T03:47:22.376Z,9.66
2022-09-28T03:48:25.104Z,9.66
2022-09-28T03:49:23.364Z,9.66
2022-09-28T03:50:22.332Z,9.66
2022-09-28T03:51:22.326Z,9.64
2022-09-28T03:52:22.320Z,9.66
2022-09-28T03:53:22.481Z,9.64
2022-09-28T03:54:22.293Z,9.67
2022-09-28T03:55:22.282Z,9.66
2022-09-28T03:56:22.291Z,9.66
2022-09-28T03:57:22.251Z,9.66
2022-09-28T03:58:22.239Z,9.66
2022-09-28T03:59:22.296Z,9.66
2022-09-28T04:00:22.268Z,9.66
2022-09-28T04:01:22.314Z,9.67
2022-09-28T04:02:22.287Z,9.67
2022-09-28T04:03:22.178Z,9.67
2022-09-28T04:04:22.169Z,9.66
2022-09-28T04:05:22.146Z,9.64
2022-09-28T04:06:22.159Z,9.64
2022-09-28T04:07:22.117Z,9.63
2022-09-28T04:08:22.116Z,9.62
2022-09-28T04:09:22.076Z,9.62
2022-09-28T04:10:22.105Z,9.60
2022-09-28T04:11:22.100Z,9.59
2022-09-28T04:12:22.091Z,9.60
2022-09-28T04:13:22.035Z,9.60
2022-09-28T04:14:22.046Z,9.59
2022-09-28T04:15:22.014Z,9.60
2022-09-28T04:16:22.083Z,9.60
2022-09-28T04:17:22.015Z,9.60
2022-09-28T04:18:22.007Z,9.60
2022-09-28T04:19:21.955Z,9.60
2022-09-28T04:20:21.955Z,9.60
2022-09-28T04:21:21.936Z,9.57
2022-09-28T04:22:21.952Z,9.59
2022-09-28T04:23:21.931Z,9.60
2022-09-28T04:24:21.895Z,9.59
2022-09-28T04:25:21.896Z,9.59
2022-09-28T04:26:21.874Z,9.59
2022-09-28T04:27:21.862Z,9.59
2022-09-28T04:28:21.853Z,9.59
2022-09-28T04:29:21.974Z,9.59
2022-09-28T04:30:21.819Z,9.59
2022-09-28T04:31:21.881Z,9.59
2022-09-28T04:32:21.809Z,9.59
2022-09-28T04:33:21.810Z,9.59
2022-09-28T04:34:21.769Z,9.60
2022-09-28T04:35:21.749Z,9.59
2022-09-28T04:36:21.768Z,9.59
2022-09-28T04:37:21.746Z,9.59
2022-09-28T04:38:41.502Z,9.62
2022-09-28T04:39:22.710Z,9.59
2022-09-28T04:40:21.797Z,9.60
2022-09-28T04:41:21.689Z,9.59
2022-09-28T04:42:21.684Z,9.60
2022-09-28T04:43:21.646Z,9.60
2022-09-28T04:44:21.669Z,9.59
2022-09-28T04:45:21.638Z,9.59
2022-09-28T04:46:21.614Z,9.59
2022-09-28T04:47:21.602Z,9.59
2022-09-28T04:48:21.594Z,9.60
2022-09-28T04:49:21.596Z,9.60
2022-09-28T04:50:21.563Z,9.60
2022-09-28T04:51:21.544Z,9.60
2022-09-28T04:52:21.573Z,9.60
2022-09-28T04:53:21.532Z,9.60
2022-09-28T04:54:21.554Z,9.59
2022-09-28T04:55:21.494Z,9.59
2022-09-28T04:56:21.484Z,9.60
2022-09-28T04:57:21.478Z,9.60
2022-09-28T04:58:21.472Z,9.59
2022-09-28T04:59:21.452Z,9.60
2022-09-28T05:00:21.472Z,9.60
2022-09-28T05:01:21.467Z,9.60
2022-09-28T05:02:21.604Z,9.59
2022-09-28T05:03:21.407Z,9.60
2022-09-28T05:04:25.757Z,9.59
2022-09-28T05:05:21.368Z,9.59
2022-09-28T05:06:21.382Z,9.59
2022-09-28T05:07:21.368Z,9.57
2022-09-28T05:08:21.361Z,9.60
2022-09-28T05:09:21.330Z,9.60
2022-09-28T05:10:21.325Z,9.59
2022-09-28T05:11:21.301Z,9.57
2022-09-28T05:12:21.293Z,9.59
2022-09-28T05:13:21.289Z,9.60
2022-09-28T05:14:21.288Z,9.60
2022-09-28T05:15:21.237Z,9.59
2022-09-28T05:16:21.276Z,9.59
2022-09-28T05:17:21.216Z,9.59
2022-09-28T05:18:21.197Z,9.60
2022-09-28T05:19:21.211Z,9.62
2022-09-28T05:20:21.176Z,9.60
2022-09-28T05:21:21.176Z,9.62
2022-09-28T05:22:21.179Z,9.62
2022-09-28T05:23:21.147Z,9.62
2022-09-28T05:24:21.149Z,9.62
2022-09-28T05:25:21.148Z,9.62
2022-09-28T05:26:21.104Z,9.60
2022-09-28T05:27:21.141Z,9.60
2022-09-28T05:28:21.084Z,9.62
2022-09-28T05:29:21.053Z,9.60
2022-09-28T05:30:21.056Z,9.60
2022-09-28T05:31:21.071Z,9.60
2022-09-28T05:32:21.051Z,9.62
2022-09-28T05:33:21.012Z,9.59
2022-09-28T05:34:21.036Z,9.60
2022-09-28T05:35:20.983Z,9.62
2022-09-28T05:36:20.999Z,9.63
2022-09-28T05:37:20.976Z,9.60
2022-09-28T05:38:20.991Z,9.62
2022-09-28T05:39:20.930Z,9.62
2022-09-28T05:40:20.967Z,9.60
2022-09-28T05:41:20.925Z,9.62
2022-09-28T05:42:20.891Z,9.62
2022-09-28T05:43:20.891Z,9.63
2022-09-28T05:44:20.934Z,9.62
2022-09-28T05:45:20.888Z,9.62
2022-09-28T05:46:20.928Z,9.62
2022-09-28T05:47:20.819Z,9.62
2022-09-28T05:48:20.818Z,9.60
2022-09-28T05:49:20.817Z,9.60
2022-09-28T05:50:20.799Z,9.60
2022-09-28T05:51:20.799Z,9.60
2022-09-28T05:52:20.766Z,9.59
2022-09-28T05:53:20.769Z,9.60
2022-09-28T05:54:20.926Z,9.59
2022-09-28T05:55:20.767Z,9.59
2022-09-28T05:56:20.725Z,9.59
2022-09-28T05:57:20.705Z,9.59
2022-09-28T05:58:20.688Z,9.59
2022-09-28T05:59:20.676Z,9.59
2022-09-28T06:00:20.654Z,9.59
2022-09-28T06:01:20.720Z,9.60
2022-09-28T06:02:20.699Z,9.60
2022-09-28T06:03:20.749Z,9.60
2022-09-28T06:04:20.609Z,9.62
2022-09-28T06:05:20.593Z,9.60
2022-09-28T06:06:20.592Z,9.59
2022-09-28T06:07:20.599Z,9.62
2022-09-28T06:08:20.553Z,9.59
2022-09-28T06:09:25.169Z,9.60
2022-09-28T06:10:21.612Z,9.62
2022-09-28T06:11:20.540Z,9.60
2022-09-28T06:12:20.513Z,9.62
2022-09-28T06:13:20.493Z,9.62
2022-09-28T06:14:20.492Z,9.60
2022-09-28T06:15:20.481Z,9.62
2022-09-28T06:16:20.500Z,9.62
2022-09-28T06:17:20.444Z,9.62
2022-09-28T06:18:20.440Z,9.63
2022-09-28T06:19:20.411Z,9.64
2022-09-28T06:20:20.430Z,9.64
2022-09-28T06:21:20.416Z,9.64
2022-09-28T06:22:20.427Z,9.64
2022-09-28T06:23:20.370Z,9.66
2022-09-28T06:24:20.369Z,9.64
2022-09-28T06:25:20.344Z,9.66
2022-09-28T06:26:20.328Z,9.64
2022-09-28T06:27:20.317Z,9.66
2022-09-28T06:28:20.298Z,9.66
2022-09-28T06:29:20.319Z,9.67
2022-09-28T06:30:20.285Z,9.70
2022-09-28T06:31:20.273Z,9.67
2022-09-28T06:32:20.255Z,9.71
2022-09-28T06:33:20.260Z,9.72
2022-09-28T06:34:20.217Z,9.71
2022-09-28T06:35:20.214Z,9.72
2022-09-28T06:36:20.206Z,9.72
2022-09-28T06:37:20.191Z,9.74
2022-09-28T06:38:20.169Z,9.72
2022-09-28T06:39:20.182Z,9.74
2022-09-28T06:40:20.190Z,9.75
2022-09-28T06:41:20.166Z,9.74
2022-09-28T06:42:20.138Z,9.74
2022-09-28T06:43:20.142Z,9.75
2022-09-28T06:44:20.092Z,9.75
2022-09-28T06:45:20.102Z,9.75
2022-09-28T06:46:20.146Z,9.75
2022-09-28T06:47:20.088Z,9.77
2022-09-28T06:48:20.041Z,9.78
2022-09-28T06:49:20.129Z,9.78
2022-09-28T06:50:20.017Z,9.80
2022-09-28T06:51:20.039Z,9.80
2022-09-28T06:52:19.984Z,9.82
2022-09-28T06:53:19.998Z,9.82
2022-09-28T06:54:19.988Z,9.82
2022-09-28T06:55:19.967Z,9.82
2022-09-28T06:56:19.963Z,9.84
2022-09-28T06:57:19.975Z,9.85
2022-09-28T06:58:19.910Z,9.88
2022-09-28T06:59:19.937Z,9.88
2022-09-28T07:00:19.887Z,9.89
2022-09-28T07:01:19.971Z,9.93
2022-09-28T07:02:19.878Z,9.95
2022-09-28T07:03:19.876Z,9.98
2022-09-28T07:04:19.839Z,10.02
2022-09-28T07:05:19.829Z,10.03
2022-09-28T07:06:19.837Z,10.08
2022-09-28T07:07:19.829Z,10.11
2022-09-28T07:08:19.786Z,10.13
2022-09-28T07:09:31.266Z,10.14
2022-09-28T07:10:20.787Z,10.17
2022-09-28T07:11:19.766Z,10.20
2022-09-28T07:12:19.725Z,10.21
2022-09-28T07:13:47.515Z,10.21
2022-09-28T07:14:38.489Z,10.23
2022-09-28T07:15:20.774Z,10.23
2022-09-28T07:16:24.116Z,10.23
2022-09-28T07:17:20.713Z,10.25
2022-09-28T07:18:19.724Z,10.26
2022-09-28T07:19:19.653Z,10.26
2022-09-28T07:20:20.020Z,10.29
2022-09-28T07:21:28.688Z,10.31
2022-09-28T07:22:34.473Z,10.31
2022-09-28T07:23:20.592Z,10.29
2022-09-28T07:24:20.092Z,10.28
2022-09-28T07:25:20.268Z,10.29
2022-09-28T07:26:22.907Z,10.31
2022-09-28T07:27:19.674Z,10.29
2022-09-28T07:28:19.577Z,10.31
2022-09-28T07:29:19.509Z,10.32
2022-09-28T07:30:19.520Z,10.35
2022-09-28T07:31:19.577Z,10.38
2022-09-28T07:32:19.595Z,10.38
2022-09-28T07:33:19.534Z,10.38
2022-09-28T07:34:19.546Z,10.38
2022-09-28T07:35:19.509Z,10.36
2022-09-28T07:36:19.447Z,10.39
2022-09-28T07:37:19.485Z,10.39
2022-09-28T07:38:19.395Z,10.39
2022-09-28T07:39:19.406Z,10.39
2022-09-28T07:40:19.450Z,10.39
2022-09-28T07:41:19.387Z,10.42
2022-09-28T07:42:19.374Z,10.42
2022-09-28T07:43:19.345Z,10.42
2022-09-28T07:44:19.356Z,10.42
2022-09-28T07:45:19.326Z,10.41
2022-09-28T07:46:19.382Z,10.38
2022-09-28T07:47:19.293Z,10.36
2022-09-28T07:48:19.264Z,10.36
2022-09-28T07:49:19.474Z,10.35
2022-09-28T07:50:19.265Z,10.36
2022-09-28T07:51:19.292Z,10.36
2022-09-28T07:52:19.229Z,10.35
2022-09-28T07:53:19.225Z,10.36
2022-09-28T07:54:19.206Z,10.35
2022-09-28T07:55:19.224Z,10.35
2022-09-28T07:56:19.181Z,10.33
2022-09-28T07:57:19.244Z,10.35
2022-09-28T07:58:19.212Z,10.35
2022-09-28T07:59:19.239Z,10.35
2022-09-28T08:00:19.140Z,10.36
2022-09-28T08:01:19.286Z,10.38
2022-09-28T08:02:19.212Z,10.36
2022-09-28T08:03:19.461Z,10.33
2022-09-28T08:04:19.069Z,10.33
2022-09-28T08:05:19.049Z,10.35
2022-09-28T08:06:19.113Z,10.36
2022-09-28T08:07:23.521Z,10.38
2022-09-28T08:08:19.119Z,10.38
2022-09-28T08:09:19.156Z,10.41
2022-09-28T08:10:19.001Z,10.44
2022-09-28T08:11:19.014Z,10.46
2022-09-28T08:12:18.987Z,10.49
2022-09-28T08:13:20.397Z,10.49
2022-09-28T08:14:19.042Z,10.49
2022-09-28T08:15:18.964Z,10.49
2022-09-28T08:16:19.048Z,10.49
2022-09-28T08:17:18.947Z,10.49
2022-09-28T08:18:18.889Z,10.47
2022-09-28T08:19:19.160Z,10.49
2022-09-28T08:20:18.870Z,10.51
2022-09-28T08:21:18.855Z,10.54
2022-09-28T08:22:18.874Z,10.51
2022-09-28T08:23:18.834Z,10.54
2022-09-28T08:24:18.862Z,10.55
2022-09-28T08:25:18.817Z,10.54
2022-09-28T08:26:18.786Z,10.57
2022-09-28T08:27:18.805Z,10.58
2022-09-28T08:28:18.793Z,10.61
2022-09-28T08:29:18.791Z,10.58
2022-09-28T08:30:18.744Z,10.59
2022-09-28T08:31:18.796Z,10.61
2022-09-28T08:32:18.741Z,10.61
2022-09-28T08:33:18.719Z,10.59
2022-09-28T08:34:18.810Z,10.59
2022-09-28T08:35:18.721Z,10.59
2022-09-28T08:36:18.682Z,10.58
2022-09-28T08:37:18.650Z,10.55
2022-09-28T08:38:18.661Z,10.55
2022-09-28T08:39:18.621Z,10.54
2022-09-28T08:40:18.685Z,10.54
2022-09-28T08:41:18.603Z,10.51
2022-09-28T08:42:18.592Z,10.49
2022-09-28T08:43:18.600Z,10.52
2022-09-28T08:44:18.655Z,10.52
2022-09-28T08:45:18.538Z,10.54
2022-09-28T08:46:18.734Z,10.55
2022-09-28T08:47:18.547Z,10.57
2022-09-28T08:48:18.526Z,10.57
2022-09-28T08:49:25.547Z,10.58
2022-09-28T08:50:19.476Z,10.58
2022-09-28T08:51:18.477Z,10.58
2022-09-28T08:52:18.501Z,10.57
2022-09-28T08:53:18.499Z,10.58
2022-09-28T08:54:18.552Z,10.61
2022-09-28T08:55:18.448Z,10.65
2022-09-28T08:56:18.492Z,10.66
2022-09-28T08:57:18.406Z,10.70
2022-09-28T08:58:18.424Z,10.73
2022-09-28T08:59:18.369Z,10.79
2022-09-28T09:00:18.344Z,10.80
2022-09-28T09:01:18.373Z,10.84
2022-09-28T09:02:18.431Z,10.88
2022-09-28T09:03:18.359Z,10.91
2022-09-28T09:04:18.425Z,10.95
2022-09-28T09:05:18.312Z,10.97
2022-09-28T09:06:18.694Z,11.00
2022-09-28T09:07:18.286Z,11.08
2022-09-28T09:08:18.311Z,11.08
2022-09-28T09:09:18.240Z,11.12
2022-09-28T09:10:18.280Z,11.15
2022-09-28T09:11:18.262Z,11.15
2022-09-28T09:12:18.191Z,11.20
2022-09-28T09:13:18.194Z,11.20
2022-09-28T09:14:18.333Z,11.20
2022-09-28T09:15:18.161Z,11.21
2022-09-28T09:16:18.197Z,11.26
2022-09-28T09:17:18.131Z,11.31
2022-09-28T09:18:19.992Z,11.33
2022-09-28T09:19:18.152Z,11.38
2022-09-28T09:20:18.080Z,11.41
2022-09-28T09:21:18.386Z,11.43
2022-09-28T09:22:18.084Z,11.43
2022-09-28T09:23:18.093Z,11.42
2022-09-28T09:24:18.083Z,11.42
2022-09-28T09:25:18.040Z,11.43
2022-09-28T09:26:23.081Z,11.43
2022-09-28T09:27:19.028Z,11.46
2022-09-28T09:28:17.981Z,11.48
2022-09-28T09:29:18.007Z,11.45
2022-09-28T09:30:20.105Z,11.46
2022-09-28T09:31:22.413Z,11.45
2022-09-28T09:32:18.026Z,11.43
2022-09-28T09:33:17.956Z,11.45
2022-09-28T09:34:18.057Z,11.45
2022-09-28T09:35:19.220Z,11.42
2022-09-28T09:36:17.882Z,11.39
2022-09-28T09:37:17.870Z,11.38
2022-09-28T09:38:17.853Z,11.39
2022-09-28T09:39:17.864Z,11.38
2022-09-28T09:40:17.891Z,11.38
2022-09-28T09:41:17.828Z,11.35
2022-09-28T09:42:17.811Z,11.34
2022-09-28T09:43:18.539Z,11.39
2022-09-28T09:44:17.876Z,11.39
2022-09-28T09:45:17.764Z,11.39
2022-09-28T09:46:17.794Z,11.38
2022-09-28T09:47:17.763Z,11.38
2022-09-28T09:48:17.714Z,11.35
2022-09-28T09:49:17.741Z,11.35
2022-09-28T09:50:17.701Z,11.35
2022-09-28T09:51:17.721Z,11.38
2022-09-28T09:52:17.701Z,11.34
2022-09-28T09:53:17.675Z,11.34
2022-09-28T09:54:17.754Z,11.33
2022-09-28T09:55:17.650Z,11.33
2022-09-28T09:56:17.630Z,11.35
2022-09-28T09:57:17.634Z,11.34
2022-09-28T09:58:17.588Z,11.38
2022-09-28T09:59:17.766Z,11.41
2022-09-28T10:00:18.595Z,11.42
2022-09-28T10:01:17.608Z,11.43
2022-09-28T10:02:17.569Z,11.49
2022-09-28T10:03:17.568Z,11.49
2022-09-28T10:04:17.533Z,11.51
2022-09-28T10:05:17.516Z,11.51
2022-09-28T10:06:17.500Z,11.53
2022-09-28T10:07:17.487Z,11.51
2022-09-28T10:08:17.490Z,11.51
2022-09-28T10:09:17.548Z,11.46
2022-09-28T10:10:17.460Z,11.45
2022-09-28T10:11:17.461Z,11.43
2022-09-28T10:12:17.417Z,11.42
2022-09-28T10:13:17.432Z,11.42
2022-09-28T10:14:17.395Z,11.38
2022-09-28T10:15:17.386Z,11.38
2022-09-28T10:16:17.367Z,11.39
2022-09-28T10:17:17.374Z,11.39
2022-09-28T10:18:17.349Z,11.43
2022-09-28T10:19:17.468Z,11.46
2022-09-28T10:20:18.059Z,11.51
2022-09-28T10:21:17.307Z,11.52
2022-09-28T10:22:17.274Z,11.52
2022-09-28T10:23:17.323Z,11.57
2022-09-28T10:24:17.306Z,11.56
2022-09-28T10:25:17.250Z,11.60
2022-09-28T10:26:19.568Z,11.57
2022-09-28T10:27:17.321Z,11.59
2022-09-28T10:28:17.211Z,11.60
2022-09-28T10:29:17.292Z,11.60
2022-09-28T10:30:17.240Z,11.61
2022-09-28T10:31:17.161Z,11.63
2022-09-28T10:32:17.160Z,11.66
2022-09-28T10:33:17.140Z,11.64
2022-09-28T10:34:17.318Z,11.68
2022-09-28T10:35:17.122Z,11.71
2022-09-28T10:36:17.115Z,11.71
2022-09-28T10:37:17.247Z,11.71
2022-09-28T10:38:17.069Z,11.75
2022-09-28T10:39:17.090Z,11.73
2022-09-28T10:40:17.125Z,11.75
2022-09-28T10:41:17.051Z,11.75
2022-09-28T10:42:17.049Z,11.73
2022-09-28T10:43:17.029Z,11.75
2022-09-28T10:44:16.988Z,11.76
2022-09-28T10:45:16.996Z,11.78
2022-09-28T10:46:17.079Z,11.78
2022-09-28T10:47:16.979Z,11.73
2022-09-28T10:48:16.966Z,11.73
2022-09-28T10:49:16.926Z,11.68
2022-09-28T10:50:16.943Z,11.67
2022-09-28T10:51:16.933Z,11.63
2022-09-28T10:52:17.006Z,11.60
2022-09-28T10:53:16.876Z,11.57
2022-09-28T10:54:16.903Z,11.52
2022-09-28T10:55:16.854Z,11.51
2022-09-28T10:56:16.929Z,11.49
2022-09-28T10:57:16.865Z,11.46
2022-09-28T10:58:16.815Z,11.43
2022-09-28T10:59:16.804Z,11.42
2022-09-28T11:00:16.832Z,11.39
2022-09-28T11:01:16.918Z,11.41
2022-09-28T11:02:16.834Z,11.42
2022-09-28T11:03:16.772Z,11.42
2022-09-28T11:04:16.761Z,11.43
2022-09-28T11:05:16.732Z,11.45
2022-09-28T11:06:16.721Z,11.49
2022-09-28T11:07:17.404Z,11.56
2022-09-28T11:08:16.723Z,11.57
2022-09-28T11:09:16.691Z,11.61
2022-09-28T11:10:16.735Z,11.67
2022-09-28T11:11:16.643Z,11.71
2022-09-28T11:12:16.632Z,11.75
2022-09-28T11:13:16.649Z,11.76
2022-09-28T11:14:16.620Z,11.78
2022-09-28T11:15:16.663Z,11.81
2022-09-28T11:16:16.656Z,11.81
2022-09-28T11:17:16.588Z,11.82
2022-09-28T11:18:16.587Z,11.85
2022-09-28T11:19:16.581Z,11.86
2022-09-28T11:20:16.600Z,11.88
2022-09-28T11:21:16.516Z,11.86
2022-09-28T11:22:16.538Z,11.89
2022-09-28T11:23:16.502Z,11.88
2022-09-28T11:24:19.082Z,11.86
2022-09-28T11:25:16.465Z,11.85
2022-09-28T11:26:18.827Z,11.84
2022-09-28T11:27:16.445Z,11.85
2022-09-28T11:28:16.470Z,11.81
2022-09-28T11:29:16.470Z,11.78
2022-09-28T11:30:16.466Z,11.76
2022-09-28T11:31:16.583Z,11.73
2022-09-28T11:32:16.384Z,11.68
2022-09-28T11:33:16.375Z,11.64
2022-09-28T11:34:16.416Z,11.60
2022-09-28T11:35:16.352Z,11.56
2022-09-28T11:36:16.377Z,11.49
2022-09-28T11:37:16.596Z,11.45
2022-09-28T11:38:16.292Z,11.39
2022-09-28T11:39:16.307Z,11.33
2022-09-28T11:40:16.405Z,11.28
2022-09-28T11:41:16.263Z,11.27
2022-09-28T11:42:16.685Z,11.23
2022-09-28T11:43:16.893Z,11.18
2022-09-28T11:44:16.255Z,11.16
2022-09-28T11:45:16.240Z,11.15
2022-09-28T11:46:16.291Z,11.12
2022-09-28T11:47:16.180Z,11.12
2022-09-28T11:48:16.299Z,11.12
2022-09-28T11:49:16.189Z,11.08
2022-09-28T11:50:20.037Z,11.08
2022-09-28T11:51:17.267Z,11.06
2022-09-28T11:52:16.148Z,11.06
2022-09-28T11:53:16.099Z,11.12
2022-09-28T11:54:16.158Z,11.20
2022-09-28T11:55:16.116Z,11.24
2022-09-28T11:56:16.107Z,11.28
2022-09-28T11:57:16.073Z,11.30
2022-09-28T11:58:16.157Z,11.31
2022-09-28T11:59:16.047Z,11.38
2022-09-28T12:00:16.083Z,11.45
2022-09-28T12:01:18.894Z,11.48
2022-09-28T12:02:16.103Z,11.49
2022-09-28T12:03:16.036Z,11.51
2022-09-28T12:04:16.002Z,11.53
2022-09-28T12:05:20.729Z,11.57
2022-09-28T12:06:16.934Z,11.63
2022-09-28T12:07:15.943Z,11.66
2022-09-28T12:08:15.918Z,11.70
2022-09-28T12:09:15.944Z,11.75
2022-09-28T12:10:15.895Z,11.79
2022-09-28T12:11:15.872Z,11.82
2022-09-28T12:12:15.873Z,11.84
2022-09-28T12:13:15.853Z,11.86
2022-09-28T12:14:15.854Z,11.88
2022-09-28T12:15:15.823Z,11.91
2022-09-28T12:17:20.135Z,11.95
2022-09-28T12:18:15.880Z,11.97
2022-09-28T12:19:15.804Z,11.98
2022-09-28T12:20:16.483Z,11.94
2022-09-28T12:21:15.748Z,11.91
2022-09-28T12:22:15.763Z,11.86
2022-09-28T12:23:15.939Z,11.85
2022-09-28T12:24:15.754Z,11.82
2022-09-28T12:25:15.732Z,11.82
2022-09-28T12:26:15.691Z,11.82
2022-09-28T12:27:15.858Z,11.84
2022-09-28T12:28:15.649Z,11.81
2022-09-28T12:29:15.663Z,11.81
2022-09-28T12:30:15.648Z,11.81
2022-09-28T12:31:15.646Z,11.79
2022-09-28T12:32:15.617Z,11.75
2022-09-28T12:33:15.621Z,11.67
2022-09-28T12:34:15.586Z,11.64
2022-09-28T12:35:15.556Z,11.59
2022-09-28T12:36:15.563Z,11.53
2022-09-28T12:37:16.279Z,11.49
2022-09-28T12:38:15.598Z,11.46
2022-09-28T12:39:27.063Z,11.45
2022-09-28T12:40:16.641Z,11.42
2022-09-28T12:41:15.554Z,11.41
2022-09-28T12:42:15.562Z,11.41
2022-09-28T12:43:15.486Z,11.38
2022-09-28T12:44:15.454Z,11.35
2022-09-28T12:45:15.424Z,11.34
2022-09-28T12:46:15.471Z,11.35
2022-09-28T12:47:15.510Z,11.33
2022-09-28T12:48:15.431Z,11.31
2022-09-28T12:51:16.358Z,11.30
2022-09-28T12:52:15.355Z,11.33
2022-09-28T12:53:15.395Z,11.34
2022-09-28T12:54:15.625Z,11.35
2022-09-28T12:55:15.299Z,11.38
2022-09-28T12:56:17.942Z,11.35
2022-09-28T12:57:16.285Z,11.38
2022-09-28T12:58:15.293Z,11.35
2022-09-28T12:59:15.308Z,11.35
2022-09-28T13:00:15.279Z,11.35
2022-09-28T13:01:15.267Z,11.34
2022-09-28T13:02:15.237Z,11.35
2022-09-28T13:03:15.251Z,11.38
2022-09-28T13:04:15.449Z,11.39
2022-09-28T13:05:15.199Z,11.41
2022-09-28T13:06:15.180Z,11.42
2022-09-28T13:07:15.158Z,11.43
2022-09-28T13:08:15.136Z,11.45
2022-09-28T13:09:15.247Z,11.45